Time;durP1;ratioP1;P1;durP2;ratioP2;P2;SDS_P1;SDS_P2;PMS_P1;PMS_P2;Temp;Humidity;BMP_temperature;BMP_pressure;BME280_temperature;BME280_humidity;BME280_pressure;Samples;Min_cycle;Max_cycle;Signal;HPM_P1;HPM_P2
2023/01/17 00:00:37;;;;;;;3.63;3.33;;;6.30;99.90;;;;;;5081531;28;20202;-79
2023/01/17 00:03:07;;;;;;;3.90;3.55;;;6.40;99.90;;;;;;5087425;28;20268;-78
2023/01/17 00:11:20;;;;;;;4.80;3.72;;;6.20;99.90;;;;;;5074087;28;20686;-78
2023/01/17 00:13:51;;;;;;;5.55;5.05;;;6.10;99.90;;;;;;5077670;28;20206;-78
2023/01/17 00:16:21;;;;;;;5.30;4.80;;;6.00;99.90;;;;;;5078249;28;20238;-78
2023/01/17 01:35:15;;;;;;;18.25;13.93;;;5.30;99.90;;;;;;5071419;28;20224;-77
2023/01/17 01:37:44;;;;;;;20.10;14.85;;;5.00;99.90;;;;;;5067528;28;20231;-77
2023/01/17 01:40:23;;;;;;;15.70;11.57;;;5.10;99.90;;;;;;5078808;28;20224;-78
2023/01/17 01:42:56;;;;;;;21.02;13.52;;;5.10;99.90;;;;;;5068262;28;20592;-78
2023/01/17 01:45:31;;;;;;;17.85;12.43;;;5.00;99.90;;;;;;5075973;28;20208;-78
2023/01/17 01:48:07;;;;;;;19.00;13.70;;;4.90;99.90;;;;;;5080753;28;20202;-79
2023/01/17 01:53:33;;;;;;;15.35;8.25;;;4.80;99.90;;;;;;5071513;28;20220;-78
2023/01/17 01:56:12;;;;;;;16.50;9.27;;;4.70;99.90;;;;;;5072082;28;20230;-78
2023/01/17 01:58:54;;;;;;;14.23;8.32;;;4.80;99.90;;;;;;5076906;28;20327;-78
2023/01/17 02:01:22;;;;;;;19.52;9.23;;;4.70;99.90;;;;;;5067072;28;20218;-78
2023/01/17 02:03:55;;;;;;;13.60;8.35;;;4.70;99.90;;;;;;5070571;28;20239;-78
2023/01/17 02:06:30;;;;;;;15.85;9.55;;;4.70;99.90;;;;;;5077135;28;20234;-79
2023/01/17 02:09:02;;;;;;;16.83;9.57;;;4.70;99.90;;;;;;5078141;28;20198;-79
2023/01/17 02:11:38;;;;;;;16.80;10.05;;;4.70;99.90;;;;;;5071396;28;20203;-80
2023/01/17 02:14:16;;;;;;;15.52;9.23;;;4.70;99.90;;;;;;5072846;28;20200;-79
2023/01/17 02:17:04;;;;;;;17.25;10.02;;;4.70;99.90;;;;;;5073186;28;20289;-78
2023/01/17 02:20:04;;;;;;;15.60;10.98;;;4.70;99.90;;;;;;5075135;28;20202;-79
2023/01/17 02:23:12;;;;;;;14.55;11.30;;;4.70;99.90;;;;;;5069362;28;20208;-80
2023/01/17 02:26:14;;;;;;;17.80;10.75;;;4.70;99.90;;;;;;5079367;28;20639;-79
2023/01/17 02:29:05;;;;;;;18.33;12.88;;;4.70;99.90;;;;;;5078701;28;20202;-78
2023/01/17 02:31:46;;;;;;;18.67;11.93;;;4.50;99.90;;;;;;5072946;28;20660;-78
2023/01/17 02:34:30;;;;;;;14.77;10.60;;;4.70;99.90;;;;;;5072767;28;20207;-79
2023/01/17 02:37:17;;;;;;;16.92;11.90;;;4.80;99.90;;;;;;5076249;28;20309;-80
2023/01/17 02:39:59;;;;;;;15.13;10.23;;;4.80;99.90;;;;;;5073571;28;20652;-78
2023/01/17 02:42:43;;;;;;;15.30;10.73;;;4.80;99.90;;;;;;5067168;28;20581;-78
2023/01/17 02:45:23;;;;;;;15.68;10.23;;;4.60;99.90;;;;;;5071219;28;20227;-78
2023/01/17 02:48:06;;;;;;;12.10;9.00;;;4.60;99.90;;;;;;5074904;28;20622;-78
2023/01/17 02:50:51;;;;;;;12.65;9.00;;;4.60;99.90;;;;;;5069679;28;20229;-78
2023/01/17 02:53:34;;;;;;;13.43;9.38;;;4.50;99.90;;;;;;5075984;28;20206;-78
2023/01/17 02:56:10;;;;;;;14.15;9.20;;;4.50;99.90;;;;;;5079624;28;20624;-78
2023/01/17 02:58:59;;;;;;;12.63;8.75;;;4.50;99.90;;;;;;5078900;28;20217;-78
2023/01/17 03:01:32;;;;;;;15.38;9.95;;;4.60;99.90;;;;;;5075276;28;20205;-78
2023/01/17 03:04:14;;;;;;;10.95;6.95;;;4.60;99.90;;;;;;5069160;28;20206;-78
2023/01/17 03:06:50;;;;;;;7.55;5.13;;;4.60;99.90;;;;;;5078672;28;20280;-78
2023/01/17 03:09:20;;;;;;;6.90;5.45;;;4.70;99.90;;;;;;5079485;28;20202;-78
2023/01/17 03:12:05;;;;;;;6.20;4.80;;;4.60;99.90;;;;;;5077088;28;20625;-78
2023/01/17 03:14:34;;;;;;;5.78;4.10;;;4.70;99.90;;;;;;5078817;28;20198;-79
2023/01/17 03:17:02;;;;;;;12.23;3.95;;;4.70;99.90;;;;;;5093399;28;20224;-79
2023/01/17 03:19:31;;;;;;;3.85;3.45;;;4.70;99.90;;;;;;5087977;28;20211;-78
2023/01/17 03:22:07;;;;;;;3.85;3.08;;;4.80;99.90;;;;;;5087581;28;20203;-78
2023/01/17 03:24:37;;;;;;;2.92;2.30;;;4.80;99.90;;;;;;5093603;28;20202;-78
2023/01/17 03:27:07;;;;;;;3.03;2.20;;;4.60;99.90;;;;;;5091972;28;20219;-78
2023/01/17 03:29:41;;;;;;;2.67;2.20;;;4.70;99.90;;;;;;5087175;28;20219;-78
2023/01/17 03:32:09;;;;;;;3.90;2.35;;;4.70;99.90;;;;;;5091337;28;20195;-78
2023/01/17 03:34:37;;;;;;;2.50;2.17;;;4.80;99.90;;;;;;5087761;28;20195;-79
2023/01/17 03:37:07;;;;;;;1.70;1.60;;;4.90;99.90;;;;;;5081121;28;20325;-78
2023/01/17 03:39:43;;;;;;;2.45;1.98;;;4.80;99.90;;;;;;5086404;28;20207;-78
2023/01/17 03:42:12;;;;;;;2.55;1.17;;;4.90;99.90;;;;;;5084031;28;20200;-78
2023/01/17 03:44:40;;;;;;;1.55;1.42;;;4.80;99.90;;;;;;5083310;28;20199;-78
2023/01/17 03:47:10;;;;;;;2.30;1.58;;;4.80;99.90;;;;;;5080863;28;20832;-78
2023/01/17 03:49:40;;;;;;;2.28;1.85;;;4.70;99.90;;;;;;5074637;28;20195;-79
2023/01/17 03:52:13;;;;;;;2.78;1.60;;;4.70;99.90;;;;;;5077336;28;20230;-78
2023/01/17 03:54:42;;;;;;;1.27;1.17;;;4.80;99.90;;;;;;5075301;28;20568;-79
2023/01/17 03:57:17;;;;;;;1.15;1.05;;;4.80;99.90;;;;;;5071843;28;20263;-79
2023/01/17 03:59:45;;;;;;;1.58;1.10;;;4.80;99.90;;;;;;5075081;28;20192;-79
2023/01/17 04:02:16;;;;;;;1.40;1.00;;;4.80;99.90;;;;;;5068208;28;20287;-78
2023/01/17 04:04:51;;;;;;;1.73;1.00;;;4.80;99.90;;;;;;5072406;28;20203;-78
2023/01/17 04:07:22;;;;;;;1.67;1.33;;;4.80;99.90;;;;;;5079098;28;20586;-78
2023/01/17 04:09:52;;;;;;;0.82;0.65;;;4.80;99.90;;;;;;5079601;28;20211;-78
2023/01/17 04:12:19;;;;;;;2.35;0.77;;;4.80;99.90;;;;;;5081340;28;20614;-79
2023/01/17 04:14:51;;;;;;;3.08;0.70;;;4.80;99.90;;;;;;5079153;28;20209;-78
2023/01/17 04:17:20;;;;;;;2.05;0.70;;;4.80;99.90;;;;;;5069243;28;20271;-79
2023/01/17 04:19:52;;;;;;;0.60;0.50;;;4.80;99.90;;;;;;5075075;28;20196;-78
2023/01/17 04:22:20;;;;;;;1.80;0.60;;;4.80;99.90;;;;;;5071182;28;20210;-79
2023/01/17 04:24:50;;;;;;;4.80;3.00;;;4.70;99.90;;;;;;5064458;28;20603;-78
2023/01/17 04:27:18;;;;;;;1.67;0.50;;;4.80;99.90;;;;;;5069171;28;20234;-78
2023/01/17 04:29:47;;;;;;;0.70;0.55;;;4.70;99.90;;;;;;5075137;28;20573;-77
2023/01/17 04:32:17;;;;;;;2.55;0.70;;;4.60;99.90;;;;;;5074954;28;20211;-77
2023/01/17 04:34:44;;;;;;;0.60;0.60;;;4.70;99.90;;;;;;5065892;28;20646;-77
2023/01/17 04:37:19;;;;;;;2.60;0.70;;;4.60;99.90;;;;;;5071787;28;20241;-79
2023/01/17 04:39:47;;;;;;;1.50;0.75;;;4.50;99.90;;;;;;5072813;28;20674;-78
2023/01/17 04:42:14;;;;;;;1.83;0.82;;;4.40;99.90;;;;;;5076003;28;20671;-78
2023/01/17 04:44:41;;;;;;;2.25;0.85;;;4.40;99.90;;;;;;5078627;28;20667;-78
2023/01/17 04:47:12;;;;;;;1.73;1.17;;;4.40;99.90;;;;;;5082794;28;20227;-78
2023/01/17 04:49:48;;;;;;;1.35;0.98;;;4.50;99.90;;;;;;5071568;28;20211;-79
2023/01/17 04:52:39;;;;;;;4.78;1.13;;;4.50;99.90;;;;;;5083835;28;20481;-78
2023/01/17 04:55:13;;;;;;;1.10;0.70;;;4.50;99.90;;;;;;5073651;28;20643;-78
2023/01/17 04:57:43;;;;;;;2.10;1.75;;;4.50;99.90;;;;;;5072877;28;20226;-77
2023/01/17 05:00:11;;;;;;;2.38;1.08;;;4.60;99.90;;;;;;5073376;28;20636;-79
2023/01/17 05:02:42;;;;;;;0.80;0.70;;;4.50;99.90;;;;;;5081203;28;20660;-79
2023/01/17 05:05:10;;;;;;;3.92;0.88;;;4.50;99.90;;;;;;5082521;28;20679;-78
2023/01/17 05:07:54;;;;;;;2.90;1.00;;;4.50;99.90;;;;;;5077251;28;20234;-79
2023/01/17 05:10:24;;;;;;;5.65;0.98;;;4.50;99.90;;;;;;5075235;28;20222;-79
2023/01/17 05:12:58;;;;;;;5.40;1.10;;;4.60;99.90;;;;;;5069838;28;20211;-79
2023/01/17 05:15:28;;;;;;;4.13;0.80;;;4.60;99.90;;;;;;5079472;28;20203;-79
2023/01/17 05:17:56;;;;;;;3.03;1.75;;;4.60;99.90;;;;;;5079814;28;20209;-78
2023/01/17 05:20:27;;;;;;;4.13;0.80;;;4.60;99.90;;;;;;5082593;28;20923;-79
2023/01/17 05:22:57;;;;;;;2.70;1.00;;;4.60;99.90;;;;;;5069833;28;20376;-78
2023/01/17 05:25:43;;;;;;;3.03;0.63;;;4.50;99.90;;;;;;5067338;28;20211;-78
2023/01/17 05:28:12;;;;;;;6.38;1.00;;;4.70;99.90;;;;;;5082824;28;20648;-79
2023/01/17 05:30:45;;;;;;;3.72;1.20;;;4.60;99.90;;;;;;5082855;28;20220;-79
2023/01/17 05:33:14;;;;;;;1.42;0.88;;;4.60;99.90;;;;;;5080573;28;20657;-78
2023/01/17 05:35:44;;;;;;;3.00;1.40;;;4.60;99.90;;;;;;5078099;28;20191;-78
2023/01/17 05:38:12;;;;;;;4.78;1.20;;;4.70;99.90;;;;;;5080195;28;20241;-79
2023/01/17 05:43:23;;;;;;;2.80;0.93;;;4.60;99.90;;;;;;5075829;28;20282;-77
2023/01/17 05:45:58;;;;;;;8.32;1.00;;;4.70;99.90;;;;;;5067791;28;20795;-78
2023/01/17 05:48:26;;;;;;;1.10;0.80;;;4.70;99.90;;;;;;5074762;28;20259;-77
2023/01/17 05:51:00;;;;;;;4.93;1.00;;;4.70;99.90;;;;;;5077387;28;20225;-78
2023/01/17 05:53:40;;;;;;;3.55;0.80;;;4.70;99.90;;;;;;5082734;28;20198;-79
2023/01/17 05:56:17;;;;;;;10.65;1.73;;;4.70;99.90;;;;;;5073514;28;20253;-78
2023/01/17 05:58:44;;;;;;;4.43;1.40;;;4.70;99.90;;;;;;5079327;28;20206;-78
2023/01/17 06:01:18;;;;;;;2.67;1.15;;;4.60;99.90;;;;;;5074106;28;20290;-77
2023/01/17 06:03:47;;;;;;;8.70;1.33;;;4.60;99.90;;;;;;5078138;28;20199;-78
2023/01/17 06:06:27;;;;;;;3.17;1.15;;;4.50;99.90;;;;;;5085804;28;20254;-78
2023/01/17 06:08:59;;;;;;;2.45;0.90;;;4.60;99.90;;;;;;5080299;28;20212;-79
2023/01/17 06:11:38;;;;;;;2.90;0.93;;;4.30;99.90;;;;;;5078444;28;20211;-77
2023/01/17 06:14:08;;;;;;;6.60;2.45;;;4.30;99.90;;;;;;5072446;28;20296;-78
2023/01/17 06:16:57;;;;;;;1.88;1.00;;;4.10;99.90;;;;;;5074988;28;20227;-78
2023/01/17 06:19:25;;;;;;;4.47;1.27;;;4.00;99.90;;;;;;5082656;28;20241;-78
2023/01/17 06:21:54;;;;;;;3.50;1.50;;;3.70;99.90;;;;;;5093719;28;20223;-78
2023/01/17 06:24:22;;;;;;;2.33;1.83;;;3.70;99.90;;;;;;5096331;28;20210;-78
2023/01/17 06:26:50;;;;;;;5.65;1.55;;;3.60;99.90;;;;;;5094238;28;20219;-79
2023/01/17 06:29:17;;;;;;;11.82;3.33;;;3.50;99.90;;;;;;5098259;28;20210;-79
2023/01/17 06:31:47;;;;;;;4.10;2.78;;;3.60;99.90;;;;;;5095154;28;20212;-78
2023/01/17 06:34:14;;;;;;;8.23;1.92;;;3.60;99.90;;;;;;5095275;28;20203;-78
2023/01/17 06:36:52;;;;;;;4.45;2.72;;;3.60;99.90;;;;;;5093665;28;20206;-77
2023/01/17 06:39:35;;;;;;;6.18;1.92;;;3.60;99.90;;;;;;5097255;28;20174;-78
2023/01/17 06:42:18;;;;;;;4.50;1.45;;;3.50;99.90;;;;;;5085933;28;20184;-80
2023/01/17 06:44:47;;;;;;;8.50;3.22;;;3.50;99.90;;;;;;5092455;28;20231;-76
2023/01/17 06:47:15;;;;;;;4.32;1.73;;;3.50;99.90;;;;;;5079717;28;20226;-80
2023/01/17 06:49:49;;;;;;;6.20;2.45;;;3.40;99.90;;;;;;5083857;28;20203;-83
2023/01/17 06:52:16;;;;;;;2.83;1.58;;;3.40;99.90;;;;;;5076141;28;20249;-80
2023/01/17 06:54:45;;;;;;;5.00;1.67;;;3.40;99.90;;;;;;5085250;28;20216;-80
2023/01/17 06:57:14;;;;;;;7.10;1.55;;;3.40;99.90;;;;;;5084193;28;20234;-81
2023/01/17 07:00:39;;;;;;;1.25;1.08;;;3.50;99.90;;;;;;5076747;28;20191;-81
2023/01/17 07:06:31;;;;;;;2.03;1.45;;;3.50;99.90;;;;;;5077403;28;20225;-83
2023/01/17 07:09:02;;;;;;;5.38;1.50;;;3.50;99.90;;;;;;5070973;28;20205;-80
2023/01/17 07:11:32;;;;;;;9.05;1.55;;;3.40;99.90;;;;;;5076269;28;20206;-79
2023/01/17 07:14:04;;;;;;;2.50;1.63;;;3.40;99.90;;;;;;5073380;28;20298;-82
2023/01/17 07:16:33;;;;;;;7.00;2.40;;;3.40;99.90;;;;;;5072269;28;20223;-78
2023/01/17 07:19:03;;;;;;;1.83;1.40;;;3.40;99.90;;;;;;5071240;28;20207;-78
2023/01/17 07:21:52;;;;;;;1.70;1.38;;;3.40;99.90;;;;;;5077121;28;20207;-78
2023/01/17 07:24:33;;;;;;;3.25;2.13;;;3.40;99.90;;;;;;5069090;28;20203;-77
2023/01/17 07:27:07;;;;;;;9.30;2.05;;;3.40;99.90;;;;;;5068444;28;20679;-79
2023/01/17 07:29:50;;;;;;;26.17;3.10;;;3.40;99.90;;;;;;5071694;28;20202;-79
2023/01/17 07:32:29;;;;;;;6.35;1.55;;;3.40;99.90;;;;;;5071813;28;20226;-78
2023/01/17 07:35:07;;;;;;;6.03;2.20;;;3.50;99.90;;;;;;5072515;28;20206;-78
2023/01/17 07:38:00;;;;;;;8.60;2.33;;;3.50;99.90;;;;;;5075347;28;20242;-78
2023/01/17 07:40:28;;;;;;;5.70;2.33;;;3.50;99.90;;;;;;5080042;28;20203;-79
2023/01/17 07:43:12;;;;;;;11.52;4.32;;;3.40;99.90;;;;;;5078292;28;20226;-77
2023/01/17 07:45:43;;;;;;;7.32;4.85;;;3.40;99.90;;;;;;5077116;28;20210;-78
2023/01/17 07:48:20;;;;;;;7.72;3.78;;;3.40;99.90;;;;;;5082652;28;20245;-77
2023/01/17 07:51:01;;;;;;;7.50;3.20;;;3.40;99.90;;;;;;5069504;28;20214;-78
2023/01/17 07:56:17;;;;;;;7.32;4.07;;;3.50;99.90;;;;;;5082724;28;20595;-79
2023/01/17 07:58:49;;;;;;;4.25;1.95;;;3.50;99.90;;;;;;5086176;28;20225;-77
2023/01/17 08:01:28;;;;;;;5.22;3.30;;;3.50;99.90;;;;;;5074733;28;20637;-79
2023/01/17 08:03:56;;;;;;;7.45;3.75;;;3.50;99.90;;;;;;5076776;28;20206;-78
2023/01/17 08:06:28;;;;;;;4.53;2.13;;;3.50;99.90;;;;;;5083207;28;20222;-77
2023/01/17 08:09:15;;;;;;;4.78;1.77;;;3.50;99.90;;;;;;5077126;28;20404;-77
2023/01/17 08:11:43;;;;;;;7.90;2.38;;;3.40;99.90;;;;;;5078906;28;20301;-78
2023/01/17 08:14:23;;;;;;;3.72;1.42;;;3.40;99.90;;;;;;5076487;28;20210;-78
2023/01/17 08:16:54;;;;;;;2.85;1.40;;;3.50;99.90;;;;;;5080439;28;20237;-77
2023/01/17 08:19:24;;;;;;;6.00;2.10;;;3.40;99.90;;;;;;5083707;28;20234;-78
2023/01/17 08:21:58;;;;;;;8.98;1.30;;;3.40;99.90;;;;;;5080984;28;20211;-78
2023/01/17 08:24:26;;;;;;;5.53;1.80;;;3.40;99.90;;;;;;5072575;28;20274;-77
2023/01/17 08:27:05;;;;;;;3.55;1.73;;;3.40;99.90;;;;;;5084080;28;20219;-78
2023/01/17 08:29:41;;;;;;;6.10;1.63;;;3.60;99.90;;;;;;5083348;28;20238;-78
2023/01/17 08:32:09;;;;;;;2.30;1.05;;;3.80;99.90;;;;;;5090928;28;20217;-78
2023/01/17 08:34:47;;;;;;;8.40;1.30;;;4.10;99.90;;;;;;5085364;28;20231;-76
2023/01/17 08:37:22;;;;;;;5.95;1.08;;;4.70;99.90;;;;;;5073379;28;20228;-79
2023/01/17 08:39:58;;;;;;;6.88;2.10;;;5.30;99.90;;;;;;5078189;28;20653;-77
2023/01/17 08:42:25;;;;;;;5.78;1.35;;;5.60;99.90;;;;;;5078493;28;20268;-77
2023/01/17 08:44:59;;;;;;;2.08;1.05;;;6.00;99.90;;;;;;5078434;28;20237;-78
2023/01/17 08:47:26;;;;;;;4.30;2.15;;;6.10;99.90;;;;;;5081025;28;20274;-77
2023/01/17 08:50:06;;;;;;;3.65;1.48;;;6.30;99.90;;;;;;5078811;28;20198;-77
2023/01/17 08:52:36;;;;;;;3.30;1.27;;;6.60;99.90;;;;;;5077736;28;20253;-77
2023/01/17 08:55:11;;;;;;;2.83;0.80;;;6.80;99.90;;;;;;5082092;28;20233;-77
2023/01/17 08:57:39;;;;;;;5.40;1.98;;;6.80;99.90;;;;;;5075238;28;20258;-77
2023/01/17 09:00:12;;;;;;;3.92;1.35;;;6.80;99.90;;;;;;5074572;28;20203;-78
2023/01/17 09:02:42;;;;;;;4.22;1.40;;;6.90;99.90;;;;;;5075043;28;20278;-77
2023/01/17 09:05:19;;;;;;;6.57;1.70;;;7.00;99.90;;;;;;5078219;28;20234;-77
2023/01/17 09:07:54;;;;;;;2.10;0.90;;;7.10;99.90;;;;;;5079376;28;20218;-76
2023/01/17 09:10:25;;;;;;;6.60;1.75;;;7.30;99.90;;;;;;5077723;28;20198;-76
2023/01/17 09:13:04;;;;;;;6.18;1.20;;;7.10;99.90;;;;;;5074936;28;20223;-77
2023/01/17 09:15:40;;;;;;;8.82;1.30;;;7.40;99.90;;;;;;5067534;28;20223;-77
2023/01/17 09:18:16;;;;;;;2.92;1.15;;;7.70;99.90;;;;;;5061546;28;20628;-78
2023/01/17 09:20:43;;;;;;;5.07;1.52;;;7.40;99.90;;;;;;5067468;28;20209;-78
2023/01/17 09:23:17;;;;;;;7.25;1.25;;;7.80;99.90;;;;;;5075729;28;20260;-77
2023/01/17 09:25:53;;;;;;;9.05;1.45;;;7.90;99.90;;;;;;5068112;28;20571;-79
2023/01/17 09:28:38;;;;;;;5.30;1.20;;;8.20;99.90;;;;;;5063913;28;20563;-77
2023/01/17 09:31:26;;;;;;;2.35;1.10;;;8.30;99.90;;;;;;5068312;28;20206;-78
2023/01/17 09:34:07;;;;;;;3.88;1.50;;;8.10;99.90;;;;;;5073456;28;20200;-77
2023/01/17 09:36:39;;;;;;;5.22;1.25;;;8.30;99.90;;;;;;5067700;28;20226;-78
2023/01/17 09:39:10;;;;;;;4.70;1.35;;;8.40;99.90;;;;;;5074270;28;20206;-76
2023/01/17 09:41:47;;;;;;;1.90;0.73;;;8.50;99.90;;;;;;5072649;28;20200;-77
2023/01/17 09:44:27;;;;;;;3.03;1.20;;;8.40;99.90;;;;;;5070987;28;20261;-77
2023/01/17 09:47:03;;;;;;;3.85;2.25;;;8.30;99.90;;;;;;5065585;28;20297;-78
2023/01/17 09:49:37;;;;;;;4.20;1.38;;;8.50;99.90;;;;;;5074594;28;20198;-78
2023/01/17 09:52:10;;;;;;;1.88;1.05;;;9.10;99.90;;;;;;5070518;28;20227;-78
2023/01/17 09:54:49;;;;;;;4.95;1.42;;;8.50;99.90;;;;;;5070518;28;20210;-80
2023/01/17 09:57:39;;;;;;;3.72;1.20;;;8.80;99.90;;;;;;5069781;28;20221;-80
2023/01/17 10:00:15;;;;;;;9.48;1.20;;;9.20;99.90;;;;;;5076245;28;20204;-81
2023/01/17 10:03:13;;;;;;;1.92;0.88;;;9.40;99.90;;;;;;5073387;28;20197;-80
2023/01/17 10:05:54;;;;;;;5.95;1.10;;;9.30;99.90;;;;;;5082729;28;20224;-81
2023/01/17 10:08:35;;;;;;;1.92;1.40;;;8.80;99.90;;;;;;5072235;28;20205;-82
2023/01/17 10:11:29;;;;;;;2.50;1.00;;;9.00;99.90;;;;;;5077753;28;20209;-81
2023/01/17 10:14:15;;;;;;;4.45;1.00;;;8.60;99.90;;;;;;5079353;28;20238;-81
2023/01/17 10:17:01;;;;;;;5.65;1.63;;;8.60;99.90;;;;;;5077502;28;20260;-81
2023/01/17 10:19:58;;;;;;;7.10;2.42;;;8.60;99.90;;;;;;5081015;28;20287;-81
2023/01/17 10:23:02;;;;;;;3.22;1.00;;;9.10;99.90;;;;;;5073616;28;20313;-81
2023/01/17 10:25:46;;;;;;;3.33;1.23;;;9.40;99.90;;;;;;5086843;28;20203;-82
2023/01/17 10:28:20;;;;;;;4.35;1.73;;;9.20;99.90;;;;;;5083770;28;20196;-82
2023/01/17 10:31:05;;;;;;;5.15;1.25;;;9.10;99.90;;;;;;5091499;28;20197;-83
2023/01/17 10:33:40;;;;;;;3.85;1.60;;;9.10;99.90;;;;;;5089955;28;20197;-80
2023/01/17 10:36:33;;;;;;;3.78;1.35;;;9.10;99.90;;;;;;5082670;28;20534;-80
2023/01/17 10:39:15;;;;;;;5.03;1.20;;;8.70;99.90;;;;;;5090340;28;20218;-79
2023/01/17 10:41:57;;;;;;;4.05;1.40;;;8.60;99.90;;;;;;5076561;28;20203;-80
2023/01/17 10:44:42;;;;;;;10.43;1.80;;;8.20;99.90;;;;;;5084629;28;20199;-81
2023/01/17 10:47:23;;;;;;;4.50;1.05;;;7.50;99.90;;;;;;5089070;28;20230;-79
2023/01/17 10:49:53;;;;;;;5.03;2.97;;;7.60;99.90;;;;;;5084665;28;20264;-78
2023/01/17 10:52:36;;;;;;;1.83;1.60;;;7.40;99.90;;;;;;5090982;28;20302;-78
2023/01/17 10:55:24;;;;;;;2.13;1.55;;;7.20;99.90;;;;;;5076179;28;20217;-81
2023/01/17 10:58:05;;;;;;;4.43;0.90;;;6.70;99.90;;;;;;5079115;28;20237;-81
2023/01/17 11:00:47;;;;;;;2.65;1.20;;;6.60;99.90;;;;;;5077761;28;20269;-79
2023/01/17 11:03:20;;;;;;;4.22;1.25;;;6.30;99.90;;;;;;5070375;28;20198;-78
2023/01/17 11:06:22;;;;;;;4.82;1.20;;;6.50;99.90;;;;;;5072577;28;20308;-79
2023/01/17 11:08:53;;;;;;;4.65;1.10;;;6.50;99.90;;;;;;5078390;28;20201;-79
2023/01/17 11:11:22;;;;;;;3.58;1.13;;;6.50;99.90;;;;;;5082007;28;20228;-80
2023/01/17 11:13:54;;;;;;;5.10;1.02;;;6.30;99.90;;;;;;5079336;28;20229;-80
2023/01/17 11:16:23;;;;;;;4.13;1.20;;;6.30;99.90;;;;;;5069603;28;20241;-80
2023/01/17 11:19:13;;;;;;;2.25;1.17;;;6.20;99.90;;;;;;5074769;28;20202;-79
2023/01/17 11:22:00;;;;;;;3.53;2.08;;;6.20;99.90;;;;;;5090597;28;20197;-80
2023/01/17 11:24:40;;;;;;;6.72;3.72;;;6.10;99.90;;;;;;5092013;28;20247;-79
2023/01/17 11:27:23;;;;;;;2.28;1.55;;;5.80;99.90;;;;;;5088062;28;20255;-78
2023/01/17 11:30:03;;;;;;;3.25;1.00;;;5.70;99.90;;;;;;5090460;28;20202;-78
2023/01/17 11:32:34;;;;;;;3.50;1.13;;;5.80;99.90;;;;;;5086652;28;20509;-80
2023/01/17 11:35:35;;;;;;;5.90;1.80;;;5.80;99.90;;;;;;5089574;28;20239;-78
2023/01/17 11:38:11;;;;;;;2.03;1.20;;;5.80;99.90;;;;;;5089666;28;20184;-80
2023/01/17 11:40:46;;;;;;;2.25;1.10;;;5.70;99.90;;;;;;5088038;28;20220;-80
2023/01/17 11:43:47;;;;;;;2.90;2.40;;;5.70;99.90;;;;;;5094222;28;20189;-80
2023/01/17 11:46:19;;;;;;;2.80;1.70;;;5.70;99.90;;;;;;5081752;28;20243;-80
2023/01/17 11:48:50;;;;;;;6.03;1.30;;;5.60;99.90;;;;;;5094069;28;20205;-78
2023/01/17 11:51:32;;;;;;;5.65;1.45;;;5.70;99.90;;;;;;5094846;28;20195;-79
2023/01/17 11:54:15;;;;;;;4.28;1.95;;;5.80;99.90;;;;;;5085345;28;20225;-78
2023/01/17 11:56:45;;;;;;;3.08;1.42;;;5.80;99.90;;;;;;5084965;28;20239;-80
2023/01/17 11:59:38;;;;;;;4.65;2.75;;;6.10;99.90;;;;;;5091401;28;20227;-79
2023/01/17 12:02:37;;;;;;;2.97;1.33;;;6.30;99.90;;;;;;5092592;28;20197;-79
2023/01/17 12:05:39;;;;;;;2.08;1.33;;;6.20;99.90;;;;;;5083149;28;20217;-79
2023/01/17 12:08:15;;;;;;;3.75;1.35;;;6.10;99.90;;;;;;5080759;28;20555;-79
2023/01/17 12:10:57;;;;;;;2.30;1.98;;;5.90;99.90;;;;;;5090209;28;20224;-79
2023/01/17 12:17:04;;;;;;;2.53;0.98;;;5.60;99.90;;;;;;5066100;28;20241;-79
2023/01/17 12:20:04;;;;;;;4.05;1.20;;;5.50;99.90;;;;;;5039525;28;20207;-80
2023/01/17 12:23:05;;;;;;;4.10;1.35;;;5.40;99.90;;;;;;5090856;28;20200;-80
2023/01/17 12:25:56;;;;;;;2.90;1.33;;;5.30;99.90;;;;;;5095753;28;20180;-80
2023/01/17 12:28:59;;;;;;;4.82;2.40;;;5.30;99.90;;;;;;5093851;28;20199;-79
2023/01/17 12:31:33;;;;;;;2.60;1.25;;;5.40;99.90;;;;;;5086896;28;20185;-79
2023/01/17 12:34:21;;;;;;;8.98;1.58;;;5.40;99.90;;;;;;5096121;28;20297;-80
2023/01/17 12:36:57;;;;;;;4.10;1.40;;;5.60;99.90;;;;;;5085693;28;20228;-80
2023/01/17 12:39:40;;;;;;;7.10;1.70;;;5.60;99.90;;;;;;5083421;28;20199;-81
2023/01/17 12:42:13;;;;;;;2.50;1.70;;;5.70;99.90;;;;;;5084663;28;20306;-80
2023/01/17 12:44:56;;;;;;;9.02;1.70;;;5.60;99.90;;;;;;5088164;28;20199;-79
2023/01/17 12:47:36;;;;;;;2.80;1.42;;;5.70;99.90;;;;;;5089849;28;20229;-78
2023/01/17 12:50:15;;;;;;;3.95;1.55;;;5.80;99.90;;;;;;5083508;28;20291;-80
2023/01/17 12:52:50;;;;;;;2.83;1.70;;;5.80;99.90;;;;;;5073273;28;20224;-80
2023/01/17 12:55:37;;;;;;;7.22;1.63;;;5.80;99.90;;;;;;5079258;28;20209;-80
2023/01/17 12:58:20;;;;;;;6.45;1.45;;;5.70;99.90;;;;;;5078446;28;20203;-80
2023/01/17 13:00:59;;;;;;;9.68;2.58;;;5.60;99.90;;;;;;5076185;28;20196;-80
2023/01/17 13:03:47;;;;;;;4.43;1.80;;;5.70;99.90;;;;;;5079184;28;20231;-80
2023/01/17 13:06:24;;;;;;;5.85;1.58;;;5.80;99.90;;;;;;5078910;28;20224;-79
2023/01/17 13:08:58;;;;;;;6.15;1.75;;;5.80;99.90;;;;;;5070722;28;20212;-79
2023/01/17 13:11:40;;;;;;;5.38;1.73;;;5.70;99.90;;;;;;5081422;28;20200;-81
2023/01/17 13:14:16;;;;;;;2.60;1.40;;;5.80;99.90;;;;;;5086708;28;20231;-79
2023/01/17 13:16:56;;;;;;;3.78;1.50;;;5.90;99.90;;;;;;5082613;28;20227;-79
2023/01/17 13:19:35;;;;;;;2.85;1.98;;;5.90;99.90;;;;;;5082919;28;20204;-80
2023/01/17 13:22:07;;;;;;;9.07;1.85;;;5.80;99.90;;;;;;5083293;28;20203;-79
2023/01/17 13:24:48;;;;;;;9.38;1.65;;;5.70;99.90;;;;;;5069978;28;20642;-79
2023/01/17 13:27:40;;;;;;;3.65;2.05;;;5.70;99.90;;;;;;5073816;28;20676;-80
2023/01/17 13:30:31;;;;;;;5.00;2.22;;;5.50;99.90;;;;;;5076103;28;20210;-80
2023/01/17 13:33:42;;;;;;;3.45;1.45;;;5.50;99.90;;;;;;5082289;28;20211;-79
2023/01/17 13:36:35;;;;;;;5.28;2.80;;;5.50;99.90;;;;;;5078590;28;20646;-78
2023/01/17 13:39:19;;;;;;;9.15;3.00;;;5.50;99.90;;;;;;5078227;28;20212;-80
2023/01/17 13:42:09;;;;;;;9.40;4.60;;;5.60;99.90;;;;;;5076218;28;20217;-79
2023/01/17 13:44:40;;;;;;;8.32;3.47;;;5.70;99.90;;;;;;5077735;28;20201;-79
2023/01/17 13:47:39;;;;;;;8.20;3.45;;;5.70;99.90;;;;;;5072398;28;20225;-80
2023/01/17 13:50:56;;;;;;;7.75;2.47;;;5.60;99.90;;;;;;5070852;28;20208;-80
2023/01/17 13:53:53;;;;;;;2.75;2.25;;;5.50;99.90;;;;;;5070915;28;20276;-80
2023/01/17 13:56:31;;;;;;;3.55;2.67;;;5.50;99.90;;;;;;5066141;28;20503;-80
2023/01/17 13:59:26;;;;;;;3.70;2.67;;;5.60;99.90;;;;;;5075291;28;20197;-80
2023/01/17 14:01:56;;;;;;;4.82;3.55;;;5.50;99.90;;;;;;5082784;28;20208;-79
2023/01/17 14:05:03;;;;;;;4.93;2.97;;;5.40;99.90;;;;;;5088780;28;20269;-79
2023/01/17 14:07:34;;;;;;;10.35;3.80;;;5.40;99.90;;;;;;5083099;28;20254;-79
2023/01/17 14:10:15;;;;;;;11.00;5.70;;;5.40;99.90;;;;;;5079322;28;20265;-79
2023/01/17 14:12:50;;;;;;;10.18;3.30;;;5.40;99.90;;;;;;5082375;28;20332;-80
2023/01/17 14:15:55;;;;;;;4.03;3.10;;;5.40;99.90;;;;;;5081980;28;20192;-79
2023/01/17 14:18:38;;;;;;;11.27;3.50;;;5.30;99.90;;;;;;5077412;28;20248;-79
2023/01/17 14:21:12;;;;;;;6.18;4.38;;;5.20;99.90;;;;;;5086314;28;20445;-79
2023/01/17 14:24:02;;;;;;;12.88;7.50;;;5.20;99.90;;;;;;5080924;28;20199;-80
2023/01/17 14:26:54;;;;;;;12.00;5.45;;;5.00;99.90;;;;;;5075743;28;20215;-81
2023/01/17 14:29:51;;;;;;;4.53;3.83;;;5.10;99.90;;;;;;5081805;28;20204;-79
2023/01/17 14:32:29;;;;;;;8.95;5.95;;;5.10;99.90;;;;;;5075596;28;20211;-79
2023/01/17 14:35:36;;;;;;;;;;;;;;;;;;;;;
2023/01/17 14:38:18;;;;;;;12.82;3.85;;;5.00;99.90;;;;;;5074489;28;20286;-79
2023/01/17 14:40:54;;;;;;;14.10;3.50;;;5.10;99.90;;;;;;5078103;28;20201;-79
2023/01/17 14:43:31;;;;;;;6.28;2.65;;;5.00;99.90;;;;;;5076056;28;20207;-80
2023/01/17 14:46:06;;;;;;;8.25;2.30;;;5.00;99.90;;;;;;5075248;28;20227;-79
2023/01/17 14:48:34;;;;;;;6.35;2.13;;;5.00;99.90;;;;;;5077092;28;20202;-80
2023/01/17 14:51:11;;;;;;;4.00;2.63;;;4.90;99.90;;;;;;5078310;28;20206;-80
2023/01/17 14:53:56;;;;;;;4.80;2.55;;;4.90;99.90;;;;;;5078281;28;20234;-79
2023/01/17 14:56:26;;;;;;;3.92;2.90;;;4.80;99.90;;;;;;5068395;28;20235;-80
2023/01/17 14:59:13;;;;;;;6.18;2.70;;;4.80;99.90;;;;;;5075284;28;20200;-82
2023/01/17 15:01:49;;;;;;;7.05;3.38;;;4.70;99.90;;;;;;5075765;28;20203;-79
2023/01/17 15:04:26;;;;;;;7.35;3.35;;;4.70;99.90;;;;;;5082254;28;20187;-82
2023/01/17 15:07:09;;;;;;;7.65;2.80;;;4.60;99.90;;;;;;5083973;28;20226;-80
2023/01/17 15:09:41;;;;;;;3.70;2.45;;;4.60;99.90;;;;;;5073492;28;20198;-80
2023/01/17 15:12:13;;;;;;;7.68;2.63;;;4.60;99.90;;;;;;5070707;28;20261;-80
2023/01/17 15:14:45;;;;;;;5.45;2.65;;;4.50;99.90;;;;;;5072848;28;20219;-78
2023/01/17 15:17:27;;;;;;;8.35;3.47;;;4.50;99.90;;;;;;5068267;28;20266;-80
2023/01/17 15:20:00;;;;;;;6.82;2.60;;;4.50;99.90;;;;;;5084068;28;20206;-81
2023/01/17 15:22:33;;;;;;;6.50;2.90;;;4.50;99.90;;;;;;5092420;28;20206;-80
2023/01/17 15:25:01;;;;;;;5.07;2.92;;;4.50;99.90;;;;;;5091870;28;20311;-80
2023/01/17 15:27:32;;;;;;;5.15;2.85;;;4.40;99.90;;;;;;5082102;28;20223;-80